Time;durP1;ratioP1;P1;durP2;ratioP2;P2;SDS_P1;SDS_P2;PMS_P1;PMS_P2;Temp;Humidity;BMP_temperature;BMP_pressure;BME280_temperature;BME280_humidity;BME280_pressure;Samples;Min_cycle;Max_cycle;Signal;HPM_P1;HPM_P2
2023/02/10 00:01:52;;;;;;;22.35;10.30;;;-3.40;99.90;;;;;;5069186;28;20612;-71
2023/02/10 00:04:20;;;;;;;20.60;9.35;;;-3.40;99.90;;;;;;5069361;28;20204;-71
2023/02/10 00:06:47;;;;;;;15.93;8.45;;;-3.40;99.90;;;;;;5071774;28;20801;-69
2023/02/10 00:09:15;;;;;;;19.05;9.85;;;-3.40;99.90;;;;;;5072981;28;20249;-71
2023/02/10 00:11:59;;;;;;;12.57;8.68;;;-3.40;99.90;;;;;;5072522;28;20200;-71
2023/02/10 00:14:26;;;;;;;17.35;9.70;;;-3.50;99.90;;;;;;5073380;28;20229;-71
2023/02/10 00:16:54;;;;;;;21.70;11.48;;;-3.50;99.90;;;;;;5072913;28;20282;-71
2023/02/10 00:19:23;;;;;;;17.02;9.50;;;-3.60;99.90;;;;;;5072544;28;20670;-71
2023/02/10 00:21:50;;;;;;;14.30;8.43;;;-3.60;99.90;;;;;;5073275;28;20212;-71
2023/02/10 00:24:17;;;;;;;14.05;8.40;;;-3.70;99.90;;;;;;5072013;28;20204;-71
2023/02/10 00:26:43;;;;;;;14.02;6.38;;;-3.70;99.90;;;;;;5072990;28;20298;-71
2023/02/10 00:29:10;;;;;;;13.35;8.25;;;-3.80;99.90;;;;;;5072524;28;20709;-71
2023/02/10 00:31:37;;;;;;;10.63;7.90;;;-3.80;99.90;;;;;;5072610;28;20200;-72
2023/02/10 00:34:03;;;;;;;13.68;7.18;;;-3.80;99.90;;;;;;5072711;28;20749;-71
2023/02/10 00:36:31;;;;;;;17.95;8.90;;;-3.80;99.90;;;;;;5072055;28;20232;-71
2023/02/10 00:38:58;;;;;;;15.45;8.40;;;-3.80;99.90;;;;;;5072212;28;20201;-71
2023/02/10 00:41:25;;;;;;;16.38;8.50;;;-3.90;99.90;;;;;;5070742;28;20197;-71
2023/02/10 00:44:11;;;;;;;13.73;8.07;;;-3.90;99.90;;;;;;5071986;28;20235;-70
2023/02/10 00:46:38;;;;;;;15.13;7.30;;;-3.90;99.90;;;;;;5072249;28;20216;-70
2023/02/10 00:49:05;;;;;;;11.77;6.95;;;-4.00;99.90;;;;;;5071356;28;20262;-70
2023/02/10 00:51:33;;;;;;;12.90;8.27;;;-4.00;99.90;;;;;;5072662;28;20211;-70
2023/02/10 00:53:59;;;;;;;14.77;8.70;;;-4.00;99.90;;;;;;5072225;28;20290;-70
2023/02/10 00:56:26;;;;;;;18.25;7.75;;;-4.10;99.90;;;;;;5072356;28;20224;-70
2023/02/10 00:58:53;;;;;;;11.15;7.30;;;-4.00;99.90;;;;;;5072337;28;20258;-70
2023/02/10 01:01:19;;;;;;;16.00;8.18;;;-4.00;99.90;;;;;;5070899;28;20200;-70
2023/02/10 01:03:46;;;;;;;12.55;6.80;;;-4.00;99.90;;;;;;5067019;28;20305;-70
2023/02/10 01:06:15;;;;;;;15.57;9.02;;;-4.00;99.90;;;;;;5052869;28;20270;-70
2023/02/10 01:08:43;;;;;;;21.00;10.80;;;-4.10;99.90;;;;;;5052920;28;20455;-70
2023/02/10 01:11:12;;;;;;;19.90;9.23;;;-4.10;99.90;;;;;;5052391;28;20511;-70
2023/02/10 01:13:40;;;;;;;13.40;7.68;;;-4.10;99.90;;;;;;5052787;28;20209;-67
2023/02/10 01:16:10;;;;;;;15.00;7.90;;;-4.10;99.90;;;;;;5052797;28;20233;-70
2023/02/10 01:18:37;;;;;;;13.85;8.00;;;-4.20;99.90;;;;;;5051885;28;20236;-70
2023/02/10 01:21:08;;;;;;;18.00;12.50;;;-4.20;99.90;;;;;;5061326;28;20220;-70
2023/02/10 01:23:34;;;;;;;7.72;5.93;;;-4.30;99.90;;;;;;5072856;28;20295;-70
2023/02/10 01:26:03;;;;;;;13.18;6.47;;;-4.30;99.90;;;;;;5072094;28;20224;-69
2023/02/10 01:28:29;;;;;;;15.35;9.10;;;-4.30;99.90;;;;;;5072676;28;20243;-70
2023/02/10 01:30:57;;;;;;;15.45;8.40;;;-4.40;99.90;;;;;;5071822;28;20200;-69
2023/02/10 01:33:24;;;;;;;15.60;9.18;;;-4.40;99.90;;;;;;5072598;28;20212;-70
2023/02/10 01:35:50;;;;;;;14.32;8.70;;;-4.40;99.90;;;;;;5072293;28;20228;-69
2023/02/10 01:38:17;;;;;;;16.30;9.25;;;-4.40;99.90;;;;;;5072447;28;20200;-70
2023/02/10 01:40:44;;;;;;;12.05;8.63;;;-4.50;99.90;;;;;;5071935;28;20250;-70
2023/02/10 01:43:15;;;;;;;17.75;7.53;;;-4.50;99.90;;;;;;5072146;28;20733;-70
2023/02/10 01:45:42;;;;;;;20.65;9.43;;;-4.50;99.90;;;;;;5072058;28;20295;-70
2023/02/10 01:48:10;;;;;;;15.27;8.63;;;-4.50;99.90;;;;;;5071957;28;20204;-70
2023/02/10 01:50:40;;;;;;;18.35;8.27;;;-4.50;99.90;;;;;;5071663;28;20261;-69
2023/02/10 01:53:07;;;;;;;17.95;7.72;;;-4.50;99.90;;;;;;5071707;28;20204;-70
2023/02/10 01:55:36;;;;;;;15.25;9.70;;;-4.50;99.90;;;;;;5072007;28;20246;-69
2023/02/10 01:58:07;;;;;;;16.92;8.55;;;-4.60;99.90;;;;;;5071461;28;20227;-69
2023/02/10 02:00:35;;;;;;;11.40;7.10;;;-4.60;99.90;;;;;;5070996;28;20288;-68
2023/02/10 02:03:02;;;;;;;15.85;7.57;;;-4.60;99.90;;;;;;5071891;28;20266;-68
2023/02/10 02:05:32;;;;;;;11.52;8.18;;;-4.70;99.90;;;;;;5071312;28;20610;-70
2023/02/10 02:08:02;;;;;;;18.20;8.82;;;-4.70;99.90;;;;;;5071921;28;20203;-70
2023/02/10 02:10:54;;;;;;;14.25;8.45;;;-4.70;99.90;;;;;;5070926;28;20200;-69
2023/02/10 02:13:29;;;;;;;14.45;8.60;;;-4.70;99.90;;;;;;5071225;28;20200;-69
2023/02/10 02:16:04;;;;;;;14.15;8.48;;;-4.70;99.90;;;;;;5071715;28;20223;-68
2023/02/10 02:18:40;;;;;;;11.25;6.75;;;-4.70;99.90;;;;;;5071169;28;20212;-68
2023/02/10 02:21:47;;;;;;;12.70;7.20;;;-4.70;99.90;;;;;;5070814;28;20218;-68
2023/02/10 02:24:34;;;;;;;21.23;8.60;;;-4.70;99.90;;;;;;5071228;28;20290;-68
2023/02/10 02:27:29;;;;;;;16.52;8.10;;;-4.70;99.90;;;;;;5071352;28;20216;-68
2023/02/10 02:30:29;;;;;;;17.33;8.07;;;-4.70;99.90;;;;;;5070939;28;20204;-68
2023/02/10 02:33:02;;;;;;;14.90;8.50;;;-4.70;99.90;;;;;;5071113;28;20203;-68
2023/02/10 02:35:33;;;;;;;18.95;9.90;;;-4.70;99.90;;;;;;5070701;28;20201;-69
2023/02/10 02:38:00;;;;;;;16.00;9.48;;;-4.60;99.90;;;;;;5071279;28;20231;-68
2023/02/10 02:40:27;;;;;;;13.18;8.55;;;-4.60;99.90;;;;;;5070190;28;20234;-69
2023/02/10 02:42:53;;;;;;;14.43;9.10;;;-4.60;99.90;;;;;;5071127;28;20249;-69
2023/02/10 02:45:26;;;;;;;15.18;9.80;;;-4.70;99.90;;;;;;5070843;28;20196;-68
2023/02/10 02:48:18;;;;;;;17.55;9.05;;;-4.70;99.90;;;;;;5071072;28;20204;-68
2023/02/10 02:50:54;;;;;;;18.58;8.60;;;-4.70;99.90;;;;;;5069847;28;20207;-67
2023/02/10 02:53:29;;;;;;;17.65;8.45;;;-4.70;99.90;;;;;;5070632;28;20204;-68
2023/02/10 02:56:04;;;;;;;11.25;7.03;;;-4.80;99.90;;;;;;5070931;28;20216;-68
2023/02/10 02:58:40;;;;;;;13.80;8.73;;;-4.80;99.90;;;;;;5070334;28;20227;-69
2023/02/10 03:01:13;;;;;;;13.38;8.93;;;-4.80;99.90;;;;;;5070341;28;20666;-68
2023/02/10 03:03:42;;;;;;;13.27;8.68;;;-4.80;99.90;;;;;;5070490;28;20204;-68
2023/02/10 03:06:09;;;;;;;20.05;10.35;;;-4.80;99.90;;;;;;5070788;28;20641;-68
2023/02/10 03:08:39;;;;;;;14.43;8.55;;;-4.90;99.90;;;;;;5070229;28;20200;-69
2023/02/10 03:11:06;;;;;;;19.58;8.93;;;-4.90;99.90;;;;;;5070382;28;20412;-69
2023/02/10 03:13:32;;;;;;;17.50;9.63;;;-4.90;99.90;;;;;;5070135;28;20717;-68
2023/02/10 03:15:59;;;;;;;16.40;7.25;;;-4.90;99.90;;;;;;5070745;28;20591;-68
2023/02/10 03:18:26;;;;;;;15.73;8.95;;;-4.90;99.90;;;;;;5070067;28;20600;-68
2023/02/10 03:20:54;;;;;;;21.40;10.23;;;-4.90;99.90;;;;;;5069976;28;20216;-69
2023/02/10 03:23:21;;;;;;;12.18;8.82;;;-4.90;99.90;;;;;;5070233;28;20261;-68
2023/02/10 03:25:48;;;;;;;17.40;9.25;;;-4.90;99.90;;;;;;5070190;28;20224;-68
2023/02/10 03:28:15;;;;;;;16.67;8.70;;;-4.90;99.90;;;;;;5070322;28;20196;-68
2023/02/10 03:30:49;;;;;;;15.07;8.93;;;-4.90;99.90;;;;;;5070072;28;20269;-68
2023/02/10 03:33:16;;;;;;;15.27;8.88;;;-4.90;99.90;;;;;;5070210;28;20201;-69
2023/02/10 03:35:44;;;;;;;15.75;9.07;;;-4.80;99.90;;;;;;5070294;28;20254;-68
2023/02/10 03:38:12;;;;;;;14.45;8.75;;;-4.80;99.90;;;;;;5070011;28;20220;-68
2023/02/10 03:40:39;;;;;;;14.60;8.57;;;-4.70;99.90;;;;;;5069650;28;20598;-69
2023/02/10 03:43:06;;;;;;;17.05;8.93;;;-4.70;99.90;;;;;;5070385;28;20648;-69
2023/02/10 03:45:33;;;;;;;13.95;8.93;;;-4.70;99.90;;;;;;5069829;28;20222;-68
2023/02/10 03:47:59;;;;;;;17.33;8.93;;;-4.60;99.90;;;;;;5070130;28;20193;-68
2023/02/10 03:50:26;;;;;;;19.73;9.95;;;-4.60;99.90;;;;;;5069530;28;20560;-69
2023/02/10 03:52:53;;;;;;;19.60;9.70;;;-4.60;99.90;;;;;;5070145;28;20697;-68
2023/02/10 03:55:21;;;;;;;16.50;8.65;;;-4.60;99.90;;;;;;5069748;28;20208;-69
2023/02/10 03:57:48;;;;;;;10.05;6.97;;;-4.60;99.90;;;;;;5070003;28;20228;-68
2023/02/10 04:00:15;;;;;;;17.80;10.15;;;-4.60;99.90;;;;;;5069326;28;20204;-69
2023/02/10 04:02:42;;;;;;;21.00;9.05;;;-4.50;99.90;;;;;;5069959;28;20226;-68
2023/02/10 04:05:09;;;;;;;19.75;8.13;;;-4.50;99.90;;;;;;5070092;28;20208;-69
2023/02/10 04:07:35;;;;;;;14.65;8.20;;;-4.50;99.90;;;;;;5069759;28;20220;-69
2023/02/10 04:10:02;;;;;;;17.90;8.55;;;-4.50;99.90;;;;;;5069782;28;20679;-69
2023/02/10 04:12:30;;;;;;;16.13;9.05;;;-4.50;99.90;;;;;;5069648;28;20200;-69
2023/02/10 04:14:57;;;;;;;19.88;9.68;;;-4.50;99.90;;;;;;5069915;28;20196;-69
2023/02/10 04:17:23;;;;;;;13.25;8.38;;;-4.50;99.90;;;;;;5069410;28;20250;-69
2023/02/10 04:19:50;;;;;;;15.63;9.43;;;-4.60;99.90;;;;;;5069405;28;20681;-69
2023/02/10 04:22:17;;;;;;;14.95;8.80;;;-4.60;99.90;;;;;;5069589;28;20212;-69
2023/02/10 04:24:44;;;;;;;19.15;10.43;;;-4.70;99.90;;;;;;5069848;28;20576;-69
2023/02/10 04:27:10;;;;;;;16.70;9.95;;;-4.70;99.90;;;;;;5069827;28;20216;-69
2023/02/10 04:29:40;;;;;;;14.77;8.45;;;-4.70;99.90;;;;;;5068772;28;20629;-69
2023/02/10 04:32:07;;;;;;;10.32;7.60;;;-4.70;99.90;;;;;;5069874;28;20275;-69
2023/02/10 04:34:34;;;;;;;17.83;7.53;;;-4.50;99.90;;;;;;5069334;28;20675;-69
2023/02/10 04:37:01;;;;;;;19.02;8.00;;;-4.60;99.90;;;;;;5069507;28;20220;-69
2023/02/10 04:39:28;;;;;;;15.50;7.32;;;-4.70;99.90;;;;;;5069185;28;20729;-69
2023/02/10 04:41:55;;;;;;;14.43;7.75;;;-4.70;99.90;;;;;;5069510;28;20667;-69
2023/02/10 04:44:22;;;;;;;10.75;7.65;;;-4.80;99.90;;;;;;5069469;28;20408;-69
2023/02/10 04:46:50;;;;;;;16.60;8.73;;;-4.90;99.90;;;;;;5069897;28;20277;-68
2023/02/10 04:49:17;;;;;;;16.73;10.13;;;-4.90;99.90;;;;;;5069470;28;20205;-68
2023/02/10 04:51:44;;;;;;;16.90;8.63;;;-4.90;99.90;;;;;;5069595;28;20326;-69
2023/02/10 04:54:11;;;;;;;19.27;7.95;;;-4.90;99.90;;;;;;5072462;28;20756;-69
2023/02/10 04:56:37;;;;;;;13.25;8.15;;;-5.00;99.90;;;;;;5072841;28;20216;-68
2023/02/10 04:59:04;;;;;;;16.60;9.80;;;-5.00;99.90;;;;;;5072988;28;20298;-68
2023/02/10 05:01:31;;;;;;;17.15;7.35;;;-5.00;99.90;;;;;;5072424;28;20219;-69
2023/02/10 05:03:59;;;;;;;16.67;8.77;;;-5.00;99.90;;;;;;5073047;28;20266;-69
2023/02/10 05:06:26;;;;;;;12.88;7.72;;;-5.00;99.90;;;;;;5073240;28;20220;-69
2023/02/10 05:08:52;;;;;;;20.98;9.93;;;-5.00;99.90;;;;;;5073954;28;20207;-70
2023/02/10 05:11:19;;;;;;;11.40;7.13;;;-5.00;99.90;;;;;;5073081;28;20207;-72
2023/02/10 05:13:46;;;;;;;16.23;8.65;;;-5.00;99.90;;;;;;5073055;28;20572;-70
2023/02/10 05:16:14;;;;;;;15.50;8.15;;;-5.00;99.90;;;;;;5072882;28;20366;-69
2023/02/10 05:18:41;;;;;;;11.32;7.90;;;-5.00;99.90;;;;;;5072676;28;20240;-69
2023/02/10 05:21:10;;;;;;;15.48;9.18;;;-5.10;99.90;;;;;;5072023;28;20219;-69
2023/02/10 05:23:37;;;;;;;11.00;7.93;;;-5.10;99.90;;;;;;5072650;28;20208;-69
2023/02/10 05:26:04;;;;;;;11.27;6.88;;;-5.10;99.90;;;;;;5072891;28;20220;-69
2023/02/10 05:28:31;;;;;;;17.50;7.88;;;-5.10;99.90;;;;;;5072476;28;20222;-69
2023/02/10 05:30:57;;;;;;;15.73;9.35;;;-5.10;99.90;;;;;;5072523;28;20200;-69
2023/02/10 05:33:24;;;;;;;10.27;5.93;;;-5.20;99.90;;;;;;5072379;28;20575;-69
2023/02/10 05:35:51;;;;;;;12.05;7.55;;;-5.20;99.90;;;;;;5072552;28;20221;-69
2023/02/10 05:38:19;;;;;;;16.75;8.98;;;-5.30;99.90;;;;;;5072140;28;20768;-69
2023/02/10 05:40:45;;;;;;;16.63;8.60;;;-5.30;99.90;;;;;;5072015;28;20549;-70
2023/02/10 05:43:12;;;;;;;11.85;6.93;;;-5.30;99.90;;;;;;5072246;28;20201;-70
2023/02/10 05:45:40;;;;;;;11.90;7.82;;;-5.30;99.90;;;;;;5072318;28;20245;-69
2023/02/10 05:48:07;;;;;;;16.80;7.25;;;-5.30;99.90;;;;;;5072411;28;20565;-69
2023/02/10 05:50:34;;;;;;;21.50;9.25;;;-5.30;99.90;;;;;;5071305;28;20205;-69
2023/02/10 05:53:01;;;;;;;14.88;7.15;;;-5.30;99.90;;;;;;5071811;28;20604;-69
2023/02/10 05:55:29;;;;;;;17.25;8.65;;;-5.30;99.90;;;;;;5071790;28;20346;-68
2023/02/10 05:57:55;;;;;;;15.80;8.88;;;-5.40;99.90;;;;;;5071865;28;20220;-69
2023/02/10 06:00:22;;;;;;;14.57;8.50;;;-5.40;99.90;;;;;;5071401;28;20201;-69
2023/02/10 06:02:49;;;;;;;19.48;9.40;;;-5.40;99.90;;;;;;5071906;28;20207;-69
2023/02/10 06:05:16;;;;;;;13.02;7.90;;;-5.40;99.90;;;;;;5071352;28;20212;-69
2023/02/10 06:07:42;;;;;;;16.58;8.88;;;-5.40;99.90;;;;;;5071881;28;20220;-69
2023/02/10 06:10:09;;;;;;;13.10;7.00;;;-5.40;99.90;;;;;;5071188;28;20197;-69
2023/02/10 06:12:37;;;;;;;10.80;8.18;;;-5.40;99.90;;;;;;5071664;28;20215;-69
2023/02/10 06:15:04;;;;;;;12.50;7.05;;;-5.40;99.90;;;;;;5071576;28;20211;-70
2023/02/10 06:17:32;;;;;;;12.13;7.18;;;-5.40;99.90;;;;;;5071269;28;20602;-69
2023/02/10 06:19:59;;;;;;;9.75;7.45;;;-5.40;99.90;;;;;;5071062;28;20222;-69
2023/02/10 06:22:26;;;;;;;17.63;7.82;;;-5.40;99.90;;;;;;5071407;28;20208;-70
2023/02/10 06:24:52;;;;;;;12.55;8.82;;;-5.40;99.90;;;;;;5071483;28;20208;-70
2023/02/10 06:27:19;;;;;;;15.27;6.82;;;-5.40;99.90;;;;;;5070595;28;20216;-70
2023/02/10 06:29:48;;;;;;;15.23;9.00;;;-5.50;99.90;;;;;;5069648;28;20193;-69
2023/02/10 06:32:14;;;;;;;14.98;5.78;;;-5.40;99.90;;;;;;5069981;28;20242;-69
2023/02/10 06:34:41;;;;;;;8.90;7.07;;;-5.40;99.90;;;;;;5070126;28;20196;-70
2023/02/10 06:37:08;;;;;;;19.67;8.52;;;-5.50;99.90;;;;;;5069930;28;20333;-70
2023/02/10 06:39:34;;;;;;;13.60;7.22;;;-5.50;99.90;;;;;;5069332;28;20938;-69
2023/02/10 06:42:01;;;;;;;15.50;8.32;;;-5.60;99.90;;;;;;5069867;28;20199;-70
2023/02/10 06:44:28;;;;;;;14.93;8.38;;;-5.60;99.90;;;;;;5069837;28;20189;-70
2023/02/10 06:46:56;;;;;;;19.83;9.07;;;-5.60;99.90;;;;;;5069576;28;20258;-69
2023/02/10 06:49:22;;;;;;;15.63;8.95;;;-5.50;99.90;;;;;;5069199;28;20192;-69
2023/02/10 06:51:49;;;;;;;16.45;8.68;;;-5.50;99.90;;;;;;5069157;28;20664;-69
2023/02/10 06:54:16;;;;;;;15.95;7.53;;;-5.50;99.90;;;;;;5069485;28;20647;-70
2023/02/10 06:56:45;;;;;;;10.20;8.40;;;-5.50;99.90;;;;;;5069996;28;20274;-69
2023/02/10 06:59:12;;;;;;;19.10;9.10;;;-5.50;99.90;;;;;;5067269;28;20219;-68
2023/02/10 07:01:39;;;;;;;14.88;7.40;;;-5.40;99.90;;;;;;5069514;28;20196;-70
2023/02/10 07:04:07;;;;;;;12.05;7.43;;;-5.40;99.90;;;;;;5069709;28;20208;-70
2023/02/10 07:06:33;;;;;;;18.90;8.32;;;-5.40;99.90;;;;;;5069753;28;20651;-70
2023/02/10 07:09:00;;;;;;;14.70;6.78;;;-5.30;99.90;;;;;;5069590;28;20563;-70
2023/02/10 07:11:27;;;;;;;13.95;7.78;;;-5.30;99.90;;;;;;5068890;28;20193;-70
2023/02/10 07:13:54;;;;;;;17.25;9.80;;;-5.30;99.90;;;;;;5069536;28;20207;-70
2023/02/10 07:16:21;;;;;;;17.80;8.30;;;-5.20;99.90;;;;;;5069121;28;20219;-70
2023/02/10 07:18:47;;;;;;;15.20;7.70;;;-5.20;99.90;;;;;;5070391;28;20212;-69
2023/02/10 07:21:15;;;;;;;11.60;7.45;;;-5.10;99.90;;;;;;5070794;28;20204;-69
2023/02/10 07:23:42;;;;;;;19.08;11.75;;;-5.10;99.90;;;;;;5083360;28;20465;-71
2023/02/10 07:26:10;;;;;;;14.65;9.00;;;-5.00;99.90;;;;;;5073511;28;20220;-72
2023/02/10 07:28:37;;;;;;;11.23;7.75;;;-4.90;99.90;;;;;;5070902;28;20595;-70
2023/02/10 07:31:04;;;;;;;15.20;8.27;;;-4.80;99.90;;;;;;5070392;28;20322;-70
2023/02/10 07:33:30;;;;;;;22.13;9.27;;;-4.80;99.90;;;;;;5070536;28;20201;-69
2023/02/10 07:36:00;;;;;;;10.70;6.97;;;-4.70;99.90;;;;;;5070491;28;20726;-70
2023/02/10 07:38:28;;;;;;;14.93;8.80;;;-4.60;99.90;;;;;;5070807;28;20312;-70
2023/02/10 07:40:55;;;;;;;20.15;9.57;;;-4.50;99.90;;;;;;5070283;28;20204;-71
2023/02/10 07:43:22;;;;;;;11.63;7.15;;;-4.40;99.90;;;;;;5070878;28;20203;-71
2023/02/10 07:45:50;;;;;;;19.35;8.05;;;-4.30;99.90;;;;;;5070823;28;20235;-70
2023/02/10 07:48:16;;;;;;;12.45;7.57;;;-4.10;99.90;;;;;;5070634;28;20207;-70
2023/02/10 07:50:43;;;;;;;14.50;8.90;;;-3.80;99.90;;;;;;5070361;28;20667;-70
2023/02/10 07:53:10;;;;;;;16.30;9.00;;;-2.90;99.90;;;;;;5070454;28;20210;-70
2023/02/10 07:55:39;;;;;;;15.23;9.93;;;-1.30;99.90;;;;;;5070254;28;20212;-70
2023/02/10 07:58:06;;;;;;;20.23;10.95;;;0.40;99.90;;;;;;5067129;28;20204;-71
2023/02/10 08:00:34;;;;;;;20.13;9.50;;;2.00;99.90;;;;;;5070162;28;20209;-71
2023/02/10 08:03:00;;;;;;;14.68;9.55;;;3.30;99.90;;;;;;5070302;28;20619;-71
2023/02/10 08:05:28;;;;;;;17.48;11.13;;;4.40;99.90;;;;;;5070155;28;20208;-71
2023/02/10 08:07:55;;;;;;;16.42;9.18;;;5.30;99.90;;;;;;5070336;28;20719;-71
2023/02/10 08:10:22;;;;;;;16.33;10.20;;;6.10;99.90;;;;;;5069323;28;20205;-71
2023/02/10 08:12:50;;;;;;;16.60;11.30;;;6.30;99.30;;;;;;5070060;28;20204;-71
2023/02/10 08:15:17;;;;;;;18.05;11.02;;;6.80;98.70;;;;;;5070042;28;20262;-71
2023/02/10 08:17:44;;;;;;;16.85;11.00;;;7.10;97.60;;;;;;5070059;28;20296;-71
2023/02/10 08:20:11;;;;;;;15.10;10.18;;;7.60;97.30;;;;;;5069386;28;20224;-71
2023/02/10 08:22:39;;;;;;;20.95;12.10;;;8.10;96.70;;;;;;5069657;28;20208;-71
2023/02/10 08:25:06;;;;;;;16.15;10.18;;;8.70;96.10;;;;;;5070418;28;20204;-71
2023/02/10 08:27:33;;;;;;;15.60;11.30;;;8.90;95.20;;;;;;5071630;28;20220;-71
2023/02/10 08:30:01;;;;;;;16.08;11.10;;;9.00;95.20;;;;;;5073292;28;20211;-71
2023/02/10 08:32:27;;;;;;;14.43;10.05;;;9.40;94.80;;;;;;5073581;28;20196;-71
2023/02/10 08:34:54;;;;;;;16.17;11.30;;;9.80;94.60;;;;;;5073809;28;20572;-70
2023/02/10 08:37:21;;;;;;;13.27;10.02;;;10.30;93.50;;;;;;5073318;28;20213;-71
2023/02/10 08:39:48;;;;;;;22.90;11.07;;;10.80;92.80;;;;;;5072969;28;20256;-71
2023/02/10 08:42:14;;;;;;;15.60;11.02;;;11.20;92.10;;;;;;5073519;28;20189;-71
2023/02/10 08:44:41;;;;;;;14.85;10.38;;;11.70;91.40;;;;;;5073671;28;20227;-71
2023/02/10 08:47:11;;;;;;;12.90;10.85;;;12.20;90.50;;;;;;5073367;28;20220;-71
2023/02/10 08:49:37;;;;;;;16.30;9.45;;;12.70;89.80;;;;;;5073186;28;20227;-71
2023/02/10 08:52:05;;;;;;;11.88;9.05;;;13.40;87.80;;;;;;5073080;28;20192;-71
2023/02/10 08:54:32;;;;;;;12.43;9.93;;;13.90;86.50;;;;;;5073391;28;20975;-71
2023/02/10 08:56:58;;;;;;;15.77;10.75;;;14.60;84.50;;;;;;5073238;28;20711;-71
2023/02/10 08:59:26;;;;;;;12.47;10.10;;;14.80;83.20;;;;;;5072952;28;20224;-71
2023/02/10 09:01:53;;;;;;;15.80;10.60;;;15.10;82.10;;;;;;5072901;28;20470;-71
2023/02/10 09:04:21;;;;;;;13.30;9.10;;;15.60;80.50;;;;;;5072970;28;20855;-71
2023/02/10 09:06:48;;;;;;;12.67;9.70;;;16.10;79.20;;;;;;5073091;28;20516;-71
2023/02/10 09:09:19;;;;;;;13.67;10.83;;;16.70;76.00;;;;;;5073032;28;20454;-71
2023/02/10 09:11:46;;;;;;;16.50;10.03;;;16.70;76.20;;;;;;5072962;28;20467;-71
2023/02/10 09:14:13;;;;;;;14.23;11.50;;;16.10;76.40;;;;;;5071987;28;20458;-71
2023/02/10 09:16:40;;;;;;;14.17;10.70;;;15.80;76.40;;;;;;5072893;28;20217;-72
2023/02/10 09:19:07;;;;;;;13.03;10.47;;;16.20;75.50;;;;;;5072860;28;20485;-72
2023/02/10 09:21:35;;;;;;;14.10;10.23;;;16.90;75.40;;;;;;5071839;28;20846;-71
2023/02/10 09:24:01;;;;;;;13.50;10.33;;;16.90;75.20;;;;;;5072668;28;20475;-71
2023/02/10 09:26:28;;;;;;;15.90;11.20;;;17.20;75.30;;;;;;5072330;28;20482;-71
2023/02/10 09:28:55;;;;;;;13.80;9.97;;;17.80;74.40;;;;;;5072782;28;20820;-71
2023/02/10 09:31:22;;;;;;;16.00;11.27;;;18.40;69.90;;;;;;5072070;28;20454;-72
2023/02/10 09:33:48;;;;;;;15.33;12.17;;;18.50;70.90;;;;;;5072648;28;20477;-72
2023/02/10 09:36:20;;;;;;;13.70;10.47;;;18.40;70.10;;;;;;5072575;28;20478;-72
2023/02/10 09:38:48;;;;;;;15.20;10.03;;;18.90;69.50;;;;;;5072055;28;20494;-72
2023/02/10 09:41:27;;;;;;;14.23;9.73;;;19.00;68.50;;;;;;5072184;28;20458;-72
2023/02/10 09:44:09;;;;;;;14.57;10.53;;;19.20;66.80;;;;;;5072831;28;20466;-72
2023/02/10 09:46:47;;;;;;;14.03;10.63;;;19.20;64.20;;;;;;5072593;28;20482;-72
2023/02/10 09:49:42;;;;;;;11.20;9.60;;;19.20;64.70;;;;;;5072006;28;20504;-71
2023/02/10 09:52:17;;;;;;;13.33;9.13;;;19.80;64.00;;;;;;5072070;28;20466;-71
2023/02/10 09:54:46;;;;;;;17.80;11.13;;;20.20;64.20;;;;;;5069965;28;20531;-71
2023/02/10 09:57:15;;;;;;;14.53;10.30;;;20.10;64.80;;;;;;5071809;28;20485;-72
2023/02/10 09:59:44;;;;;;;13.70;9.60;;;20.00;62.10;;;;;;5071380;28;20478;-72
2023/02/10 10:02:17;;;;;;;14.30;10.53;;;19.90;64.20;;;;;;5071896;28;20462;-71
2023/02/10 10:04:44;;;;;;;12.60;10.33;;;20.10;64.30;;;;;;5071982;28;20459;-71
2023/02/10 10:07:18;;;;;;;13.60;10.00;;;20.40;65.00;;;;;;5072090;28;20482;-72
2023/02/10 10:09:51;;;;;;;12.77;9.67;;;20.20;57.90;;;;;;5071687;28;20449;-71
2023/02/10 10:12:20;;;;;;;15.00;9.97;;;17.60;58.80;;;;;;5071566;28;20512;-72
2023/02/10 10:14:49;;;;;;;12.07;9.50;;;16.90;60.40;;;;;;5071953;28;20504;-72
2023/02/10 10:17:41;;;;;;;12.43;9.90;;;17.50;61.40;;;;;;5071642;28;20532;-72
2023/02/10 10:20:24;;;;;;;12.60;10.10;;;18.00;61.30;;;;;;5067932;28;20482;-72
2023/02/10 10:22:57;;;;;;;17.20;10.10;;;19.20;60.30;;;;;;5051830;28;21028;-71
2023/02/10 10:25:41;;;;;;;16.03;10.83;;;17.80;58.50;;;;;;5051324;28;20487;-71
2023/02/10 10:28:19;;;;;;;14.13;10.67;;;17.70;63.10;;;;;;5051532;28;20467;-72
2023/02/10 10:30:48;;;;;;;15.40;11.00;;;17.80;64.00;;;;;;5034340;28;20451;-72
2023/02/10 10:33:24;;;;;;;14.80;10.87;;;18.40;62.30;;;;;;5051248;28;20499;-72
2023/02/10 10:35:51;;;;;;;15.57;10.63;;;18.70;63.70;;;;;;5051391;28;20467;-72
2023/02/10 10:38:22;;;;;;;14.07;10.47;;;19.30;62.20;;;;;;5051331;28;20455;-72
2023/02/10 10:40:53;;;;;;;15.70;11.00;;;19.70;63.40;;;;;;5050794;28;20993;-72
2023/02/10 10:43:24;;;;;;;13.17;9.37;;;19.40;58.80;;;;;;5051020;28;20459;-72
2023/02/10 10:45:56;;;;;;;12.37;9.80;;;18.90;60.50;;;;;;5051178;28;20484;-73
2023/02/10 10:48:26;;;;;;;10.70;8.70;;;19.30;59.10;;;;;;5050814;28;20463;-72
2023/02/10 10:50:55;;;;;;;14.13;9.00;;;19.80;58.10;;;;;;5049544;28;20452;-72
2023/02/10 10:53:33;;;;;;;13.27;9.40;;;19.10;57.10;;;;;;5050819;28;20464;-72
2023/02/10 10:56:04;;;;;;;13.63;9.50;;;17.80;59.00;;;;;;5051114;28;21055;-72
2023/02/10 10:58:36;;;;;;;12.13;8.90;;;17.40;58.70;;;;;;5050944;28;20504;-72
2023/02/10 11:01:03;;;;;;;11.53;9.53;;;17.90;59.10;;;;;;5050418;28;20896;-72
2023/02/10 11:03:30;;;;;;;10.20;8.57;;;18.80;60.50;;;;;;5050594;28;20468;-73
2023/02/10 11:06:03;;;;;;;15.20;9.83;;;18.70;58.80;;;;;;5050814;28;20937;-72
2023/02/10 11:08:34;;;;;;;16.90;11.23;;;19.30;61.30;;;;;;5050560;28;20513;-73
2023/02/10 11:11:09;;;;;;;17.83;12.03;;;19.70;61.20;;;;;;5050293;28;20501;-72
2023/02/10 11:13:38;;;;;;;14.70;10.23;;;20.20;61.10;;;;;;5050607;28;20878;-72
2023/02/10 11:16:10;;;;;;;13.97;9.87;;;20.40;60.30;;;;;;5050298;28;20841;-73
2023/02/10 11:18:36;;;;;;;13.97;10.30;;;20.80;59.30;;;;;;5050522;28;20888;-72
2023/02/10 11:21:06;;;;;;;13.70;10.90;;;20.40;58.90;;;;;;5055021;28;20482;-72
2023/02/10 11:23:47;;;;;;;13.43;9.63;;;20.50;59.10;;;;;;5070275;28;20462;-72
2023/02/10 11:26:20;;;;;;;11.03;9.47;;;20.60;59.00;;;;;;5070204;28;20924;-72
2023/02/10 11:28:47;;;;;;;12.50;9.17;;;21.20;57.60;;;;;;5070663;28;20462;-72
2023/02/10 11:31:25;;;;;;;14.90;10.93;;;21.50;57.90;;;;;;5069648;28;20500;-72
2023/02/10 11:33:56;;;;;;;15.83;11.27;;;21.30;57.60;;;;;;5070307;28;20466;-73
2023/02/10 11:36:31;;;;;;;17.00;11.50;;;20.40;58.50;;;;;;5069669;28;20552;-72
2023/02/10 11:39:01;;;;;;;12.90;9.50;;;20.00;60.00;;;;;;5070561;28;20462;-72
2023/02/10 11:41:32;;;;;;;14.17;10.57;;;20.60;58.40;;;;;;5064484;28;20541;-72
2023/02/10 11:44:01;;;;;;;13.80;9.77;;;21.00;57.90;;;;;;5068516;28;20455;-72
2023/02/10 11:46:30;;;;;;;16.67;11.43;;;21.40;57.30;;;;;;5068594;28;20532;-73
2023/02/10 11:48:58;;;;;;;13.17;9.30;;;21.40;57.60;;;;;;5069127;28;20454;-72
2023/02/10 11:51:25;;;;;;;13.03;9.70;;;21.30;58.20;;;;;;5068417;28;20827;-73
2023/02/10 11:53:52;;;;;;;13.23;10.03;;;21.70;56.90;;;;;;5068973;28;20461;-72
2023/02/10 11:58:58;;;;;;;11.33;9.40;;;21.90;56.50;;;;;;5065441;28;20486;-72
2023/02/10 11:59:21;;;;;;;12.90;10.90;;;21.40;57.60;;;;;;5068937;28;20442;-73
2023/02/10 12:01:55;;;;;;;12.80;9.77;;;21.70;57.50;;;;;;5055014;28;20460;-72
2023/02/10 12:04:53;;;;;;;13.43;10.90;;;21.20;56.40;;;;;;5073015;28;20624;-73
2023/02/10 12:07:29;;;;;;;14.97;10.73;;;21.50;56.10;;;;;;5059920;28;20485;-72
2023/02/10 12:10:00;;;;;;;13.47;10.20;;;20.80;55.50;;;;;;5072644;28;20503;-72
2023/02/10 12:12:38;;;;;;;12.73;10.20;;;20.80;56.00;;;;;;5071627;28;20458;-71
2023/02/10 12:15:18;;;;;;;11.90;10.17;;;20.50;57.40;;;;;;5073386;28;20468;-71
2023/02/10 12:18:00;;;;;;;10.27;9.20;;;20.60;57.50;;;;;;5072835;28;20527;-71
2023/02/10 12:20:37;;;;;;;16.37;11.20;;;20.40;56.70;;;;;;5071602;28;21169;-71
2023/02/10 12:23:20;;;;;;;15.20;10.53;;;20.00;57.70;;;;;;5072728;28;20466;-71
2023/02/10 12:25:53;;;;;;;16.73;12.10;;;20.20;58.10;;;;;;5072372;28;21147;-71
2023/02/10 12:28:34;;;;;;;16.70;10.70;;;19.70;58.80;;;;;;5072421;28;20454;-71
2023/02/10 12:31:18;;;;;;;15.50;11.83;;;19.80;59.40;;;;;;5072329;28;20812;-71
2023/02/10 12:34:02;;;;;;;15.27;10.57;;;19.90;58.60;;;;;;5072659;28;20520;-72
2023/02/10 12:36:34;;;;;;;15.40;11.23;;;20.40;57.90;;;;;;5072583;28;21025;-71
2023/02/10 12:39:09;;;;;;;17.10;12.75;;;20.50;58.50;;;;;;5070531;28;20453;-70
2023/02/10 12:41:43;;;;;;;16.37;11.10;;;19.90;58.40;;;;;;5071348;28;20223;-70
2023/02/10 12:44:25;;;;;;;14.53;11.53;;;19.80;58.40;;;;;;5071911;28;20470;-71
2023/02/10 12:47:02;;;;;;;16.20;10.83;;;19.50;57.90;;;;;;5072088;28;20504;-70
2023/02/10 12:49:42;;;;;;;15.20;10.97;;;20.20;57.70;;;;;;5071754;28;20511;-71